Time;durP1;ratioP1;P1;durP2;ratioP2;P2;SDS_P1;SDS_P2;PMS_P1;PMS_P2;Temp;Humidity;BMP_temperature;BMP_pressure;BME280_temperature;BME280_humidity;BME280_pressure;Samples;Min_cycle;Max_cycle;Signal;HPM_P1;HPM_P2
2022/05/18 00:02:10;;;;;;;10.27;5.90;;;18.60;99.90;;;;;;5010532;28;20507;-72
2022/05/18 00:04:37;;;;;;;7.00;5.10;;;18.60;99.90;;;;;;5010500;28;20470;-72
2022/05/18 00:07:04;;;;;;;8.93;5.10;;;18.60;99.90;;;;;;5016175;28;20477;-73
2022/05/18 00:09:31;;;;;;;6.17;5.33;;;18.60;99.90;;;;;;5021047;28;20518;-73
2022/05/18 00:11:59;;;;;;;8.97;4.60;;;18.50;99.90;;;;;;5014057;28;20988;-73
2022/05/18 00:14:26;;;;;;;10.40;4.00;;;18.40;99.90;;;;;;5015230;28;20494;-73
2022/05/18 00:16:52;;;;;;;11.37;5.53;;;18.40;99.90;;;;;;5011401;28;20541;-73
2022/05/18 00:19:19;;;;;;;5.93;4.73;;;18.40;99.90;;;;;;5018689;28;20514;-74
2022/05/18 00:21:47;;;;;;;7.13;5.33;;;18.40;99.90;;;;;;5007802;28;20907;-73
2022/05/18 00:24:14;;;;;;;6.53;5.50;;;18.40;99.90;;;;;;5019554;28;20474;-73
2022/05/18 00:26:41;;;;;;;9.87;5.70;;;18.40;99.90;;;;;;5019864;28;20483;-72
2022/05/18 00:29:10;;;;;;;8.00;5.80;;;18.30;99.90;;;;;;5016223;28;20476;-73
2022/05/18 00:31:36;;;;;;;8.37;5.80;;;18.30;99.90;;;;;;5015031;28;20468;-73
2022/05/18 00:34:03;;;;;;;9.80;6.53;;;18.30;99.90;;;;;;5016357;28;20962;-73
2022/05/18 00:36:30;;;;;;;10.40;5.27;;;18.20;99.90;;;;;;5019952;28;20498;-74
2022/05/18 00:38:56;;;;;;;6.67;5.20;;;18.20;99.90;;;;;;5013110;28;20466;-73
2022/05/18 00:41:23;;;;;;;5.90;4.43;;;18.10;99.90;;;;;;5017920;28;20462;-73
2022/05/18 00:43:52;;;;;;;7.63;5.00;;;18.00;99.90;;;;;;5013262;28;20490;-73
2022/05/18 00:46:20;;;;;;;6.07;5.47;;;18.00;99.90;;;;;;5009487;28;20997;-73
2022/05/18 00:48:47;;;;;;;9.00;6.03;;;17.90;99.90;;;;;;5055264;22;20509;-78
2022/05/18 00:51:20;;;;;;;10.70;5.93;;;17.90;99.90;;;;;;5052800;28;20485;-78
2022/05/18 00:53:50;;;;;;;10.13;5.67;;;17.90;99.90;;;;;;5055196;28;20476;-79
2022/05/18 00:56:22;;;;;;;8.83;5.60;;;17.90;99.90;;;;;;5055077;28;20453;-78
2022/05/18 00:58:53;;;;;;;10.13;4.90;;;17.90;99.90;;;;;;5052150;28;21009;-78
2022/05/18 01:01:21;;;;;;;10.03;6.43;;;17.80;99.90;;;;;;5057471;28;21004;-78
2022/05/18 01:03:51;;;;;;;9.70;7.23;;;17.70;99.90;;;;;;5064509;28;20462;-78
2022/05/18 01:06:27;;;;;;;9.27;5.63;;;17.70;99.90;;;;;;5066807;28;20503;-78
2022/05/18 01:09:01;;;;;;;7.00;4.97;;;17.60;99.90;;;;;;5065605;28;20476;-79
2022/05/18 01:11:27;;;;;;;12.73;6.47;;;17.60;99.90;;;;;;5047315;28;20537;-79
2022/05/18 01:13:54;;;;;;;8.60;6.43;;;17.70;99.90;;;;;;5052594;28;20510;-78
2022/05/18 01:16:25;;;;;;;7.33;5.50;;;17.60;99.90;;;;;;5048735;28;20468;-78
2022/05/18 01:18:52;;;;;;;6.27;5.50;;;17.60;99.90;;;;;;5053863;28;20507;-78
2022/05/18 01:21:20;;;;;;;7.57;4.50;;;17.60;99.90;;;;;;5051483;28;20992;-78
2022/05/18 01:23:55;;;;;;;6.50;5.57;;;17.50;99.90;;;;;;5053505;28;20487;-78
2022/05/18 01:26:35;;;;;;;10.13;5.90;;;17.50;99.90;;;;;;5048497;28;20524;-78
2022/05/18 01:29:05;;;;;;;14.50;5.20;;;17.50;99.90;;;;;;5046695;28;20889;-78
2022/05/18 01:31:48;;;;;;;8.40;6.30;;;17.40;99.90;;;;;;5048864;28;26712;-78
2022/05/18 01:34:16;;;;;;;7.73;5.50;;;17.30;99.90;;;;;;5051246;28;20463;-79
2022/05/18 01:36:43;;;;;;;8.03;5.23;;;17.30;99.90;;;;;;5049787;28;20670;-78
2022/05/18 01:39:16;;;;;;;6.43;5.67;;;17.30;99.90;;;;;;5046674;28;20959;-78
2022/05/18 01:41:53;;;;;;;8.83;5.87;;;17.30;99.90;;;;;;5051594;28;21185;-78
2022/05/18 01:44:20;;;;;;;6.70;5.80;;;17.30;99.90;;;;;;5049476;28;20488;-78
2022/05/18 01:46:48;;;;;;;6.70;5.73;;;17.30;99.90;;;;;;5047793;28;20466;-80
2022/05/18 01:49:16;;;;;;;7.23;4.80;;;17.20;99.90;;;;;;5054938;28;20460;-78
2022/05/18 01:51:47;;;;;;;6.40;4.87;;;17.10;99.90;;;;;;5050851;28;20854;-78
2022/05/18 01:54:14;;;;;;;5.90;5.30;;;17.10;99.90;;;;;;5052584;28;20592;-78
2022/05/18 01:56:41;;;;;;;11.63;4.80;;;17.10;99.90;;;;;;5051698;28;20460;-78
2022/05/18 01:59:10;;;;;;;8.83;6.40;;;17.00;99.90;;;;;;5049678;28;20563;-78
2022/05/18 02:01:37;;;;;;;4.57;4.17;;;17.00;99.90;;;;;;5044119;28;20464;-79
2022/05/18 02:04:04;;;;;;;6.17;5.30;;;17.00;99.90;;;;;;5052891;28;20513;-78
2022/05/18 02:06:32;;;;;;;6.37;4.00;;;16.90;99.90;;;;;;5052057;28;20459;-78
2022/05/18 02:09:00;;;;;;;6.70;6.00;;;16.80;99.90;;;;;;5050864;28;20489;-79
2022/05/18 02:11:27;;;;;;;6.77;4.20;;;16.80;99.90;;;;;;5053286;28;20466;-78
2022/05/18 02:13:53;;;;;;;6.00;4.93;;;16.80;99.90;;;;;;5053215;28;20519;-79
2022/05/18 02:16:21;;;;;;;5.60;4.50;;;16.80;99.90;;;;;;5054361;28;20469;-78
2022/05/18 02:18:49;;;;;;;8.03;5.50;;;16.80;99.90;;;;;;5047537;28;20478;-78
2022/05/18 02:21:16;;;;;;;6.60;4.57;;;16.80;99.90;;;;;;5056939;28;20512;-78
2022/05/18 02:23:44;;;;;;;8.60;6.13;;;16.70;99.90;;;;;;5052747;28;20547;-78
2022/05/18 02:26:13;;;;;;;7.40;6.03;;;16.70;99.90;;;;;;5051013;28;20966;-78
2022/05/18 02:28:40;;;;;;;7.60;6.23;;;16.60;99.90;;;;;;5051099;28;20848;-78
2022/05/18 02:31:07;;;;;;;5.43;4.83;;;16.60;99.90;;;;;;5046852;28;20518;-78
2022/05/18 02:33:35;;;;;;;5.33;4.83;;;16.70;99.90;;;;;;5051846;28;20454;-78
2022/05/18 02:36:02;;;;;;;6.23;5.10;;;16.70;99.90;;;;;;5054489;28;20835;-78
2022/05/18 02:38:29;;;;;;;9.50;6.77;;;16.50;99.90;;;;;;5044914;28;21262;-79
2022/05/18 02:40:57;;;;;;;8.20;5.50;;;16.50;99.90;;;;;;5049550;28;20453;-78
2022/05/18 02:43:24;;;;;;;7.77;6.20;;;16.50;99.90;;;;;;5050274;28;20486;-79
2022/05/18 02:46:00;;;;;;;8.77;6.40;;;16.50;99.90;;;;;;5050119;28;20464;-78
2022/05/18 02:48:26;;;;;;;12.53;6.90;;;16.60;99.90;;;;;;5050253;28;20484;-78
2022/05/18 02:50:55;;;;;;;14.10;5.67;;;16.50;99.90;;;;;;5049135;28;21093;-78
2022/05/18 02:53:22;;;;;;;6.40;5.43;;;16.50;99.90;;;;;;5050330;28;20451;-78
2022/05/18 02:56:06;;;;;;;5.87;4.77;;;16.60;99.90;;;;;;5045317;28;21923;-79
2022/05/18 02:58:39;;;;;;;6.13;5.50;;;16.70;99.90;;;;;;5048186;28;20935;-78
2022/05/18 03:01:08;;;;;;;9.47;6.20;;;16.60;99.90;;;;;;5043855;28;20464;-77
2022/05/18 03:03:35;;;;;;;7.30;6.03;;;16.70;99.90;;;;;;5048519;28;20488;-79
2022/05/18 03:06:05;;;;;;;10.37;6.27;;;16.70;99.90;;;;;;5049343;28;20464;-79
2022/05/18 03:08:32;;;;;;;8.57;5.57;;;16.70;99.90;;;;;;5044518;28;20526;-79
2022/05/18 03:10:59;;;;;;;8.00;6.87;;;16.70;99.90;;;;;;5053245;28;20518;-78
2022/05/18 03:13:26;;;;;;;6.23;4.53;;;16.70;99.90;;;;;;5048782;28;20519;-78
2022/05/18 03:15:53;;;;;;;6.50;4.83;;;16.60;99.90;;;;;;5055558;28;20487;-78
2022/05/18 03:18:19;;;;;;;7.00;5.70;;;16.50;99.90;;;;;;5057373;28;21008;-78
2022/05/18 03:23:35;;;;;;;9.20;5.53;;;16.50;99.90;;;;;;5052118;28;20481;-77
2022/05/18 03:26:03;;;;;;;8.37;5.40;;;16.50;99.90;;;;;;5055500;28;20462;-79
2022/05/18 03:28:30;;;;;;;9.57;5.90;;;16.50;99.90;;;;;;5050513;28;20526;-77
2022/05/18 03:30:57;;;;;;;10.97;5.10;;;16.50;99.90;;;;;;5051616;28;20493;-77
2022/05/18 03:33:24;;;;;;;8.57;5.97;;;16.50;99.90;;;;;;5048946;28;20462;-77
2022/05/18 03:35:52;;;;;;;8.17;6.00;;;16.50;99.90;;;;;;5057065;28;20461;-78
2022/05/18 03:38:19;;;;;;;5.60;4.37;;;16.50;99.90;;;;;;5052356;28;20474;-79
2022/05/18 03:40:48;;;;;;;7.70;5.70;;;16.50;99.90;;;;;;5040534;28;20465;-78
2022/05/18 03:43:14;;;;;;;5.53;5.00;;;16.60;99.90;;;;;;5050643;28;20556;-77
2022/05/18 03:45:42;;;;;;;7.03;5.30;;;16.50;99.90;;;;;;5034693;28;20474;-78
2022/05/18 03:48:11;;;;;;;8.10;7.37;;;16.50;99.90;;;;;;5042618;28;20501;-78
2022/05/18 03:50:39;;;;;;;14.47;5.80;;;16.50;99.90;;;;;;5048474;28;22712;-78
2022/05/18 03:53:07;;;;;;;5.60;4.77;;;16.50;99.90;;;;;;5043657;28;20594;-78
2022/05/18 03:55:34;;;;;;;8.90;5.10;;;16.50;99.90;;;;;;5047267;28;20513;-79
2022/05/18 03:58:02;;;;;;;6.50;4.47;;;16.50;99.90;;;;;;5049692;28;20820;-77
2022/05/18 04:00:30;;;;;;;7.60;4.37;;;16.50;99.90;;;;;;5057388;28;20475;-78
2022/05/18 04:02:57;;;;;;;8.23;4.93;;;16.60;99.90;;;;;;5064179;28;20551;-78
2022/05/18 04:05:24;;;;;;;6.40;4.83;;;16.60;99.90;;;;;;5060908;28;20460;-78
2022/05/18 04:07:51;;;;;;;5.83;5.10;;;16.60;99.90;;;;;;5066698;28;20455;-79
2022/05/18 04:10:18;;;;;;;17.70;5.47;;;16.70;99.90;;;;;;5065554;28;21221;-78
2022/05/18 04:12:45;;;;;;;7.30;4.70;;;16.70;99.90;;;;;;5065301;28;21053;-78
2022/05/18 04:15:16;;;;;;;6.33;4.47;;;16.70;99.90;;;;;;5062620;28;20519;-78
2022/05/18 04:17:43;;;;;;;10.10;5.03;;;16.80;99.90;;;;;;5064740;28;20493;-78
2022/05/18 04:20:11;;;;;;;8.57;5.30;;;16.80;99.90;;;;;;5065744;28;20477;-78
2022/05/18 04:22:38;;;;;;;8.10;5.70;;;16.80;99.90;;;;;;5051162;28;20832;-78
2022/05/18 04:25:05;;;;;;;6.17;5.03;;;16.90;99.90;;;;;;5059203;28;20454;-76
2022/05/18 04:27:32;;;;;;;5.33;4.60;;;16.90;99.90;;;;;;5055008;28;20490;-77
2022/05/18 04:29:59;;;;;;;13.20;5.60;;;17.00;99.90;;;;;;5050471;28;20465;-77
2022/05/18 04:32:28;;;;;;;5.60;4.97;;;17.10;99.90;;;;;;5049364;28;20869;-77
2022/05/18 04:34:54;;;;;;;6.30;5.07;;;17.10;99.90;;;;;;5055984;28;20455;-78
2022/05/18 04:37:21;;;;;;;6.70;5.17;;;17.10;99.90;;;;;;5051892;28;20484;-77
2022/05/18 04:39:48;;;;;;;9.40;4.90;;;17.10;99.90;;;;;;5054954;28;20544;-76
2022/05/18 04:42:16;;;;;;;7.13;6.23;;;17.20;99.90;;;;;;5047377;28;20432;-78
2022/05/18 04:44:42;;;;;;;5.43;4.90;;;17.20;99.90;;;;;;5053831;28;20600;-76
2022/05/18 04:47:09;;;;;;;7.70;4.60;;;17.40;99.90;;;;;;5055863;28;20801;-77
2022/05/18 04:49:37;;;;;;;5.83;3.97;;;17.50;99.90;;;;;;5058691;28;20843;-77
2022/05/18 04:52:07;;;;;;;6.43;4.20;;;17.70;99.90;;;;;;5052829;28;20461;-77
2022/05/18 04:54:34;;;;;;;5.40;4.40;;;17.80;99.90;;;;;;5058830;28;21017;-77
2022/05/18 04:57:01;;;;;;;6.53;3.60;;;18.10;99.90;;;;;;5057188;28;20462;-77
2022/05/18 04:59:28;;;;;;;3.80;3.27;;;18.30;99.90;;;;;;5054456;28;20745;-77
2022/05/18 05:01:55;;;;;;;5.20;4.33;;;18.80;99.90;;;;;;5059707;28;20744;-77
2022/05/18 05:04:21;;;;;;;4.97;3.20;;;19.20;99.90;;;;;;5057197;28;20509;-78
2022/05/18 05:06:49;;;;;;;2.50;2.27;;;19.50;99.90;;;;;;5058104;28;20472;-77
2022/05/18 05:09:16;;;;;;;5.10;4.07;;;20.00;99.90;;;;;;5054776;28;20734;-77
2022/05/18 05:11:44;;;;;;;7.00;3.17;;;20.40;99.90;;;;;;5053203;28;21123;-77
2022/05/18 05:14:12;;;;;;;5.20;3.97;;;20.80;99.90;;;;;;5054398;28;20560;-77
2022/05/18 05:16:38;;;;;;;4.73;3.40;;;21.30;99.90;;;;;;5046173;28;21588;-77
2022/05/18 05:19:05;;;;;;;3.70;3.23;;;21.50;99.90;;;;;;5066890;28;20482;-77
2022/05/18 05:21:32;;;;;;;4.43;3.37;;;21.70;99.90;;;;;;5067257;28;20472;-78
2022/05/18 05:24:00;;;;;;;3.40;2.00;;;22.10;99.90;;;;;;5063810;28;20493;-79
2022/05/18 05:26:26;;;;;;;5.87;2.70;;;22.60;99.90;;;;;;5059971;28;22098;-79
2022/05/18 05:28:53;;;;;;;4.73;2.90;;;22.80;99.90;;;;;;5064291;28;20470;-76
2022/05/18 05:31:20;;;;;;;3.30;2.67;;;22.90;99.90;;;;;;5062094;28;20453;-76
2022/05/18 05:33:46;;;;;;;3.00;2.70;;;23.10;99.90;;;;;;5061063;28;20454;-77
2022/05/18 05:36:13;;;;;;;5.87;2.70;;;23.40;99.90;;;;;;5057727;28;20454;-76
2022/05/18 05:38:40;;;;;;;3.77;3.20;;;23.50;99.90;;;;;;5059065;28;20474;-78
2022/05/18 05:41:08;;;;;;;12.90;4.87;;;23.60;99.90;;;;;;5065850;28;20469;-77
2022/05/18 05:43:35;;;;;;;3.73;2.70;;;23.90;99.90;;;;;;5058765;28;20539;-78
2022/05/18 05:46:03;;;;;;;2.87;2.60;;;24.00;99.90;;;;;;5059860;28;20849;-77
2022/05/18 05:48:31;;;;;;;3.30;2.50;;;24.10;99.90;;;;;;5058674;28;20473;-77
2022/05/18 05:50:58;;;;;;;3.00;2.60;;;24.50;99.90;;;;;;5058334;28;20457;-77
2022/05/18 05:53:25;;;;;;;4.80;2.70;;;24.40;99.90;;;;;;5058989;28;20450;-77
2022/05/18 05:55:53;;;;;;;2.90;2.70;;;24.70;99.90;;;;;;5063637;28;20446;-77
2022/05/18 05:58:22;;;;;;;3.50;2.50;;;25.00;99.90;;;;;;5063953;28;20984;-77
2022/05/18 06:00:49;;;;;;;2.87;2.60;;;24.90;99.90;;;;;;5046968;28;20474;-78
2022/05/18 06:03:18;;;;;;;3.07;2.67;;;25.10;99.90;;;;;;5058166;28;20510;-77
2022/05/18 06:05:44;;;;;;;4.00;2.70;;;25.20;99.90;;;;;;5062131;28;21266;-79
2022/05/18 06:08:11;;;;;;;3.90;2.10;;;25.20;99.90;;;;;;5063645;28;20481;-76
2022/05/18 06:10:38;;;;;;;4.37;2.90;;;25.50;99.90;;;;;;5062916;28;20992;-76
2022/05/18 06:13:06;;;;;;;3.33;3.00;;;25.80;99.90;;;;;;5058439;28;21030;-76
2022/05/18 06:15:34;;;;;;;3.37;2.97;;;25.90;99.90;;;;;;5062205;28;21056;-79
2022/05/18 06:18:01;;;;;;;3.07;1.73;;;25.70;99.90;;;;;;5057686;28;20477;-77
2022/05/18 06:20:29;;;;;;;3.27;2.97;;;26.20;99.90;;;;;;5058406;28;20519;-76
2022/05/18 06:22:56;;;;;;;5.17;2.60;;;26.40;99.90;;;;;;5062609;28;20990;-77
2022/05/18 06:25:22;;;;;;;3.43;2.60;;;26.50;99.90;;;;;;5061022;28;20494;-77
2022/05/18 06:27:49;;;;;;;2.93;2.10;;;27.10;99.90;;;;;;5054322;28;20501;-76
2022/05/18 06:30:16;;;;;;;2.13;1.93;;;27.30;99.90;;;;;;5059501;28;20902;-76
2022/05/18 06:32:44;;;;;;;5.73;2.57;;;27.70;99.90;;;;;;5059103;28;20498;-76
2022/05/18 06:35:10;;;;;;;3.10;2.20;;;27.60;99.90;;;;;;5060729;28;20474;-77
2022/05/18 06:37:37;;;;;;;2.70;1.90;;;27.60;99.90;;;;;;5057371;28;20477;-77
2022/05/18 06:40:05;;;;;;;3.57;2.20;;;27.60;99.90;;;;;;5059828;28;20454;-78
2022/05/18 06:42:32;;;;;;;2.73;2.30;;;27.40;99.90;;;;;;5061092;28;20450;-77
2022/05/18 06:44:59;;;;;;;2.40;2.10;;;27.40;99.90;;;;;;5059053;28;20486;-77
2022/05/18 06:47:26;;;;;;;2.20;1.97;;;27.90;99.90;;;;;;5056144;28;20596;-79
2022/05/18 06:49:54;;;;;;;3.63;2.17;;;28.40;99.90;;;;;;5063992;28;20465;-77
2022/05/18 06:52:21;;;;;;;3.20;2.13;;;28.50;99.90;;;;;;5061640;28;20510;-76
2022/05/18 06:54:49;;;;;;;3.00;2.47;;;28.70;99.90;;;;;;5057396;22;20977;-74
2022/05/18 06:57:17;;;;;;;3.43;2.70;;;28.70;99.90;;;;;;5029927;28;20958;-75
2022/05/18 06:59:50;;;;;;;4.90;2.73;;;29.00;99.90;;;;;;5036743;28;20491;-75
2022/05/18 07:02:24;;;;;;;3.67;2.50;;;28.20;99.90;;;;;;5036457;28;20470;-75
2022/05/18 07:04:54;;;;;;;2.30;2.10;;;28.20;99.90;;;;;;5041525;28;20905;-75
2022/05/18 07:07:23;;;;;;;4.07;2.67;;;28.10;99.90;;;;;;5042226;28;20487;-75
2022/05/18 07:09:52;;;;;;;2.20;2.00;;;28.00;99.90;;;;;;5039635;28;20464;-75
2022/05/18 07:12:21;;;;;;;2.40;2.20;;;28.20;99.90;;;;;;5036454;28;20709;-75
2022/05/18 07:14:52;;;;;;;3.53;2.30;;;28.60;99.90;;;;;;5040836;28;20475;-75
2022/05/18 07:17:19;;;;;;;3.17;2.43;;;28.60;99.90;;;;;;5039104;28;20460;-75
2022/05/18 07:19:46;;;;;;;1.77;1.63;;;28.50;99.90;;;;;;5044045;28;20466;-74
2022/05/18 07:22:13;;;;;;;2.67;2.07;;;29.00;99.90;;;;;;5034832;28;20965;-76
2022/05/18 07:24:44;;;;;;;13.07;2.03;;;28.80;99.90;;;;;;5037700;28;20961;-74
2022/05/18 07:27:10;;;;;;;4.60;2.90;;;29.30;99.90;;;;;;5037018;28;20471;-76
2022/05/18 07:29:40;;;;;;;2.90;2.10;;;29.60;99.90;;;;;;5039795;28;20575;-75
2022/05/18 07:32:13;;;;;;;2.90;1.90;;;29.70;99.90;;;;;;5042069;28;20452;-75
2022/05/18 07:34:47;;;;;;;2.27;2.07;;;29.60;99.90;;;;;;5043662;28;20482;-75
2022/05/18 07:37:15;;;;;;;2.37;1.97;;;29.90;99.90;;;;;;5040073;28;20457;-74
2022/05/18 07:39:44;;;;;;;2.17;1.90;;;30.40;99.90;;;;;;5038237;28;21196;-77
2022/05/18 07:42:12;;;;;;;3.67;2.40;;;30.10;99.90;;;;;;5040829;28;20669;-76
2022/05/18 07:44:47;;;;;;;4.03;2.07;;;30.20;99.90;;;;;;5041640;28;20487;-75
2022/05/18 07:47:21;;;;;;;1.50;1.40;;;29.50;99.90;;;;;;5041334;28;20494;-77
2022/05/18 07:49:51;;;;;;;2.90;1.93;;;29.80;99.90;;;;;;5045700;28;20713;-77
2022/05/18 07:52:20;;;;;;;3.63;2.27;;;30.10;99.90;;;;;;5039526;28;20481;-75
2022/05/18 07:54:50;;;;;;;3.00;1.80;;;30.90;99.90;;;;;;5043182;28;20852;-75
2022/05/18 07:57:23;;;;;;;5.40;1.97;;;31.40;98.40;;;;;;5031489;28;20491;-75
2022/05/18 07:59:59;;;;;;;2.90;1.87;;;31.60;98.30;;;;;;5035545;28;20926;-75
2022/05/18 08:02:30;;;;;;;5.50;2.10;;;31.00;98.10;;;;;;5042719;28;20477;-75
2022/05/18 08:04:59;;;;;;;2.00;1.80;;;31.00;99.30;;;;;;5037384;28;21176;-75
2022/05/18 08:07:27;;;;;;;3.80;2.50;;;31.60;97.90;;;;;;5041565;28;20481;-75
2022/05/18 08:15:37;;;;;;;2.20;1.83;;;31.80;95.70;;;;;;5036155;28;20499;-76
2022/05/18 08:18:05;;;;;;;3.53;2.40;;;31.80;95.70;;;;;;5040330;28;20481;-76
2022/05/18 08:20:31;;;;;;;3.63;2.03;;;32.30;95.80;;;;;;5045439;28;20579;-76
2022/05/18 08:22:59;;;;;;;6.70;2.37;;;32.90;94.80;;;;;;5037849;28;21113;-75
2022/05/18 08:25:29;;;;;;;2.93;2.00;;;33.10;93.40;;;;;;5039456;28;20575;-76
2022/05/18 08:27:55;;;;;;;3.00;2.70;;;34.00;93.10;;;;;;5039472;28;20469;-76
2022/05/18 08:30:30;;;;;;;5.90;2.20;;;34.50;92.70;;;;;;5039885;28;20474;-75
2022/05/18 08:33:04;;;;;;;2.50;2.17;;;34.60;91.80;;;;;;5035986;28;20559;-76
2022/05/18 08:35:32;;;;;;;2.23;1.67;;;34.20;89.00;;;;;;5044195;28;20856;-75
2022/05/18 08:38:02;;;;;;;2.70;2.40;;;33.60;88.40;;;;;;5047027;28;20959;-75
2022/05/18 08:40:45;;;;;;;3.37;2.10;;;34.00;86.30;;;;;;5037578;28;21120;-75
2022/05/18 08:43:24;;;;;;;1.90;1.80;;;33.80;84.40;;;;;;5041708;28;20501;-75
2022/05/18 08:46:05;;;;;;;5.43;1.90;;;34.30;82.30;;;;;;5039015;28;20485;-75
2022/05/18 08:48:45;;;;;;;2.80;2.07;;;34.60;79.40;;;;;;5043808;28;20466;-74
2022/05/18 08:51:33;;;;;;;4.60;2.10;;;34.70;76.40;;;;;;5037035;28;20545;-74
2022/05/18 08:54:16;;;;;;;3.97;3.07;;;34.70;75.10;;;;;;5044027;28;20476;-74
2022/05/18 08:56:47;;;;;;;3.00;1.70;;;34.40;78.50;;;;;;5045602;28;20796;-76
2022/05/18 08:59:23;;;;;;;1.90;1.60;;;35.00;75.00;;;;;;5041598;28;20483;-75
2022/05/18 09:01:59;;;;;;;6.83;2.20;;;35.10;72.70;;;;;;5041072;28;20479;-76
2022/05/18 09:04:39;;;;;;;3.33;2.20;;;35.40;72.40;;;;;;5037387;28;20577;-75
2022/05/18 09:07:11;;;;;;;2.77;1.90;;;35.40;68.90;;;;;;5038598;28;20471;-75
2022/05/18 09:13:02;;;;;;;3.40;2.07;;;35.50;69.20;;;;;;4954635;28;20500;-75
2022/05/18 09:15:39;;;;;;;2.30;1.90;;;35.70;65.90;;;;;;4951035;28;20486;-75
2022/05/18 09:18:24;;;;;;;4.47;3.00;;;35.40;66.40;;;;;;5000863;28;20682;-75
2022/05/18 09:21:03;;;;;;;2.53;2.33;;;35.50;68.80;;;;;;5043583;28;20478;-75
2022/05/18 09:27:04;;;;;;;2.60;1.77;;;36.10;64.30;;;;;;5034165;28;21096;-75
2022/05/18 09:29:49;;;;;;;5.07;1.90;;;35.80;61.40;;;;;;5044694;28;20458;-75
2022/05/18 09:32:58;;;;;;;3.57;2.00;;;36.30;63.40;;;;;;5041532;28;20462;-75
2022/05/18 09:36:02;;;;;;;2.20;2.00;;;36.10;63.70;;;;;;4964189;28;20486;-75
2022/05/18 09:38:40;;;;;;;4.40;2.10;;;36.10;63.50;;;;;;4959312;28;20812;-75
2022/05/18 09:41:14;;;;;;;1.67;1.57;;;36.80;64.50;;;;;;4961824;28;20473;-74
2022/05/18 09:43:58;;;;;;;2.07;1.60;;;36.70;60.90;;;;;;5008697;28;20874;-74
2022/05/18 09:46:56;;;;;;;2.00;1.90;;;36.70;60.40;;;;;;5038895;28;21029;-75
2022/05/18 09:49:29;;;;;;;2.40;2.20;;;36.80;60.50;;;;;;5036714;28;20470;-74
2022/05/18 09:52:06;;;;;;;2.63;1.90;;;35.90;60.70;;;;;;5037126;28;20468;-75
2022/05/18 09:54:38;;;;;;;2.23;1.93;;;36.50;59.90;;;;;;5038378;28;20450;-75
2022/05/18 09:57:14;;;;;;;3.60;2.00;;;37.00;59.10;;;;;;5039881;28;20785;-75
2022/05/18 09:59:48;;;;;;;2.17;1.97;;;37.20;58.40;;;;;;5040510;28;20467;-75
2022/05/18 10:08:18;;;;;;;2.30;1.70;;;37.40;57.00;;;;;;5041240;28;20500;-76
2022/05/18 10:10:50;;;;;;;2.40;1.90;;;37.30;56.40;;;;;;5039703;28;20467;-76
2022/05/18 10:16:06;;;;;;;3.47;2.10;;;37.50;55.10;;;;;;5031813;28;20478;-76
2022/05/18 10:18:43;;;;;;;3.93;2.00;;;37.70;58.00;;;;;;5041357;28;20474;-76
2022/05/18 10:21:24;;;;;;;2.60;2.07;;;37.90;53.90;;;;;;5039371;28;20460;-76
2022/05/18 10:24:01;;;;;;;2.63;2.00;;;37.40;54.20;;;;;;5028497;28;20474;-76
2022/05/18 10:26:34;;;;;;;3.70;2.30;;;37.80;58.40;;;;;;5042638;28;20516;-75
2022/05/18 10:29:09;;;;;;;2.30;2.10;;;37.80;54.60;;;;;;5039849;28;20477;-76
2022/05/18 10:31:40;;;;;;;3.00;1.80;;;37.80;52.50;;;;;;5031926;28;20463;-75
2022/05/18 10:34:37;;;;;;;5.43;2.00;;;37.10;53.80;;;;;;5040008;28;21015;-76
2022/05/18 10:37:15;;;;;;;3.23;2.17;;;37.20;55.50;;;;;;5038504;28;20807;-75
2022/05/18 10:40:00;;;;;;;2.63;1.87;;;38.00;52.10;;;;;;5034462;28;20466;-75
2022/05/18 10:42:48;;;;;;;2.10;1.90;;;38.40;53.80;;;;;;5038980;28;20460;-76
2022/05/18 10:45:37;;;;;;;5.17;2.17;;;38.70;53.30;;;;;;5035407;28;20492;-75
2022/05/18 10:48:22;;;;;;;2.83;2.43;;;38.70;51.10;;;;;;5036037;28;20462;-74
2022/05/18 10:51:06;;;;;;;2.73;2.20;;;38.10;52.60;;;;;;5038572;28;20454;-75
2022/05/18 10:53:37;;;;;;;2.23;2.03;;;37.50;51.80;;;;;;5043446;28;20463;-75
2022/05/18 10:56:15;;;;;;;3.70;2.60;;;37.50;51.90;;;;;;5041963;28;20528;-74
2022/05/18 10:58:45;;;;;;;2.50;2.00;;;37.90;51.90;;;;;;5038205;28;20857;-74
2022/05/18 11:01:26;;;;;;;1.70;1.60;;;37.90;52.60;;;;;;5035397;28;20578;-75
2022/05/18 11:04:00;;;;;;;4.37;2.00;;;38.20;51.50;;;;;;5038936;28;20489;-74
2022/05/18 11:06:36;;;;;;;2.53;2.33;;;38.10;51.70;;;;;;5036322;28;20479;-75
2022/05/18 11:09:07;;;;;;;2.40;2.00;;;37.90;52.80;;;;;;5042671;28;20467;-75
2022/05/18 11:11:43;;;;;;;4.00;1.90;;;37.90;54.40;;;;;;5048117;28;20504;-74
2022/05/18 11:14:20;;;;;;;2.40;1.63;;;38.80;53.50;;;;;;5040452;28;20470;-75
2022/05/18 11:16:58;;;;;;;2.20;1.90;;;39.00;49.00;;;;;;5044864;28;20461;-75
2022/05/18 11:19:40;;;;;;;3.30;2.00;;;38.90;49.50;;;;;;5045855;28;20823;-75
2022/05/18 11:22:23;;;;;;;2.30;1.73;;;39.10;50.50;;;;;;5042916;28;20455;-75
2022/05/18 11:25:13;;;;;;;4.07;1.93;;;39.20;48.90;;;;;;5042970;28;20998;-75
2022/05/18 11:27:53;;;;;;;2.60;2.13;;;39.60;49.60;;;;;;5044333;28;20482;-75
2022/05/18 11:30:38;;;;;;;2.27;2.07;;;38.90;48.20;;;;;;5044910;28;20989;-75
2022/05/18 11:33:18;;;;;;;3.60;1.93;;;38.10;50.70;;;;;;5035167;28;21162;-75
2022/05/18 11:35:57;;;;;;;1.93;1.73;;;38.00;50.70;;;;;;5037432;28;20557;-76
2022/05/18 11:39:03;;;;;;;3.23;2.17;;;38.10;47.90;;;;;;5039672;28;20528;-75
2022/05/18 11:41:47;;;;;;;3.20;2.60;;;37.40;49.60;;;;;;5040404;28;20519;-75
2022/05/18 11:44:25;;;;;;;3.40;2.20;;;37.60;50.30;;;;;;5041861;28;20913;-75
2022/05/18 11:47:18;;;;;;;2.83;2.17;;;38.30;49.30;;;;;;5039186;28;20890;-75
2022/05/18 11:49:57;;;;;;;3.27;2.10;;;38.90;49.30;;;;;;5036629;28;20462;-75
2022/05/18 11:52:45;;;;;;;2.17;1.97;;;39.40;47.70;;;;;;5043367;28;20472;-75
2022/05/18 11:55:28;;;;;;;4.47;2.40;;;39.50;48.80;;;;;;5042584;28;20538;-75
2022/05/18 11:58:12;;;;;;;3.80;2.10;;;39.50;48.50;;;;;;5037576;28;21111;-75
2022/05/18 12:00:54;;;;;;;2.37;1.97;;;39.40;48.20;;;;;;5042302;28;20458;-75
2022/05/18 12:03:51;;;;;;;5.03;1.83;;;39.60;46.40;;;;;;5042324;28;20462;-75
2022/05/18 12:06:37;;;;;;;3.23;1.93;;;39.90;47.60;;;;;;5039969;28;20501;-74
2022/05/18 12:09:17;;;;;;;4.43;2.00;;;39.30;48.00;;;;;;5043327;28;20957;-75
2022/05/18 12:11:58;;;;;;;2.00;1.80;;;39.60;47.10;;;;;;5041875;28;20653;-74
2022/05/18 12:14:44;;;;;;;4.17;1.70;;;39.10;47.40;;;;;;5034511;28;20462;-75
2022/05/18 12:17:22;;;;;;;3.13;1.60;;;39.10;47.70;;;;;;5044264;28;20771;-75
2022/05/18 12:20:02;;;;;;;4.10;2.90;;;38.80;47.90;;;;;;5041449;28;20465;-75
2022/05/18 12:22:36;;;;;;;5.90;1.90;;;39.10;48.70;;;;;;5038851;28;20476;-74
2022/05/18 12:25:06;;;;;;;3.97;2.20;;;40.30;47.90;;;;;;5043364;28;20837;-74
2022/05/18 12:27:39;;;;;;;4.90;2.20;;;39.80;47.70;;;;;;5048144;28;20456;-74
2022/05/18 12:30:17;;;;;;;2.40;2.10;;;40.10;45.40;;;;;;5043260;28;21299;-75
2022/05/18 12:32:50;;;;;;;3.20;2.10;;;40.30;45.00;;;;;;5035841;28;20842;-74
2022/05/18 12:35:21;;;;;;;2.20;1.57;;;40.20;47.70;;;;;;5041901;28;20482;-74
2022/05/18 12:38:05;;;;;;;3.40;2.30;;;39.80;46.20;;;;;;5042266;28;20947;-74
2022/05/18 12:40:49;;;;;;;2.63;1.60;;;40.20;47.10;;;;;;5036070;28;20980;-74
2022/05/18 12:43:44;;;;;;;3.90;1.60;;;39.80;44.80;;;;;;5035040;28;20489;-74
2022/05/18 12:46:33;;;;;;;5.93;2.53;;;39.60;44.00;;;;;;5042425;28;20914;-74
2022/05/18 12:49:03;;;;;;;2.13;1.93;;;39.20;46.00;;;;;;5041243;28;20462;-74
2022/05/18 12:51:39;;;;;;;3.77;2.07;;;38.70;48.50;;;;;;5047506;28;20475;-75
2022/05/18 12:56:53;;;;;;;2.73;2.03;;;39.90;45.30;;;;;;5101070;22;20863;-78
2022/05/18 12:59:23;;;;;;;4.60;1.87;;;40.60;45.60;;;;;;5018122;28;20479;-78
2022/05/18 13:01:59;;;;;;;2.63;1.70;;;40.90;44.60;;;;;;5024543;28;20906;-78
2022/05/18 13:04:43;;;;;;;2.70;2.00;;;41.20;43.40;;;;;;5025197;28;20569;-78
2022/05/18 13:07:26;;;;;;;1.90;1.80;;;40.70;43.20;;;;;;5021710;28;20495;-79
2022/05/18 13:10:05;;;;;;;2.20;1.60;;;40.20;42.90;;;;;;5022438;28;20475;-78
2022/05/18 13:12:47;;;;;;;1.90;1.80;;;39.80;44.40;;;;;;5023848;28;20595;-78
2022/05/18 13:15:39;;;;;;;2.70;1.90;;;39.70;45.10;;;;;;5025066;28;20522;-78
2022/05/18 13:18:13;;;;;;;3.40;1.60;;;40.50;43.40;;;;;;5023280;28;21685;-78
2022/05/18 13:20:48;;;;;;;3.50;2.20;;;40.90;43.90;;;;;;5020820;28;21369;-77
2022/05/18 13:23:34;;;;;;;2.27;1.63;;;40.30;43.90;;;;;;5022005;28;20513;-77
2022/05/18 13:26:03;;;;;;;3.97;2.30;;;39.30;44.20;;;;;;5020529;28;21015;-78
2022/05/18 13:28:33;;;;;;;2.13;1.93;;;39.20;44.40;;;;;;5023304;28;20502;-77
2022/05/18 13:31:04;;;;;;;2.23;1.90;;;39.20;44.30;;;;;;5005468;28;20608;-77
2022/05/18 13:33:39;;;;;;;2.00;1.60;;;38.70;44.80;;;;;;5008001;28;20467;-77
2022/05/18 13:36:06;;;;;;;1.90;1.60;;;38.60;43.70;;;;;;5022215;28;20837;-77
2022/05/18 13:38:33;;;;;;;4.70;2.00;;;38.60;45.20;;;;;;5013236;28;20487;-77